sensor_id;sensor_type;location;lat;lon;timestamp;pressure;altitude;pressure_sealevel;temperature;humidity
48778;BME280;34578;0.000;0.000;2023-04-04T00:03:36;97104.31;;;16.84;47.13
48778;BME280;34578;0.000;0.000;2023-04-04T00:08:36;97100.81;;;16.72;47.35
48778;BME280;34578;0.000;0.000;2023-04-04T00:13:37;97099.03;;;16.65;47.62
48778;BME280;34578;0.000;0.000;2023-04-04T00:18:38;97090.59;;;16.66;47.32
48778;BME280;34578;0.000;0.000;2023-04-04T00:23:38;97094.78;;;16.66;47.70
48778;BME280;34578;0.000;0.000;2023-04-04T00:28:38;97098.97;;;16.62;46.64
48778;BME280;34578;0.000;0.000;2023-04-04T00:33:39;97093.97;;;16.65;46.54
48778;BME280;34578;0.000;0.000;2023-04-04T00:38:39;97088.06;;;16.66;46.97
48778;BME280;34578;0.000;0.000;2023-04-04T00:43:40;97083.78;;;16.62;47.56
48778;BME280;34578;0.000;0.000;2023-04-04T00:48:41;97084.66;;;16.63;47.54
48778;BME280;34578;0.000;0.000;2023-04-04T00:53:45;97076.22;;;16.62;47.49
48778;BME280;34578;0.000;0.000;2023-04-04T00:58:46;97066.97;;;16.63;47.29
48778;BME280;34578;0.000;0.000;2023-04-04T01:03:48;97080.44;;;16.63;47.62
48778;BME280;34578;0.000;0.000;2023-04-04T01:08:50;97078.91;;;16.74;47.76
48778;BME280;34578;0.000;0.000;2023-04-04T01:13:51;97076.44;;;16.78;47.67
48778;BME280;34578;0.000;0.000;2023-04-04T01:18:52;97079.78;;;16.79;46.93
48778;BME280;34578;0.000;0.000;2023-04-04T01:24:01;97077.97;;;16.67;47.23
48778;BME280;34578;0.000;0.000;2023-04-04T01:29:28;97073.69;;;16.62;47.31
48778;BME280;34578;0.000;0.000;2023-04-04T01:34:42;97066.16;;;16.65;47.05
48778;BME280;34578;0.000;0.000;2023-04-04T01:39:48;97059.41;;;16.64;46.89
48778;BME280;34578;0.000;0.000;2023-04-04T01:44:55;97050.91;;;16.59;47.54
48778;BME280;34578;0.000;0.000;2023-04-04T01:49:57;97058.50;;;16.62;46.87
48778;BME280;34578;0.000;0.000;2023-04-04T01:54:58;97062.75;;;16.63;46.40
48778;BME280;34578;0.000;0.000;2023-04-04T01:59:58;97051.84;;;16.67;45.45
48778;BME280;34578;0.000;0.000;2023-04-04T02:04:58;97056.88;;;16.64;46.59
48778;BME280;34578;0.000;0.000;2023-04-04T02:09:59;97055.16;;;16.63;46.76
48778;BME280;34578;0.000;0.000;2023-04-04T02:15:00;97045.91;;;16.64;46.22
48778;BME280;34578;0.000;0.000;2023-04-04T02:20:01;97051.81;;;16.66;45.82
48778;BME280;34578;0.000;0.000;2023-04-04T02:25:01;97053.63;;;16.74;47.29
48778;BME280;34578;0.000;0.000;2023-04-04T02:30:02;97053.63;;;16.75;46.74
48778;BME280;34578;0.000;0.000;2023-04-04T02:35:03;97043.34;;;16.62;46.79
48778;BME280;34578;0.000;0.000;2023-04-04T02:40:04;97050.91;;;16.59;46.96
48778;BME280;34578;0.000;0.000;2023-04-04T02:45:10;97047.59;;;16.65;45.53
48778;BME280;34578;0.000;0.000;2023-04-04T02:50:12;97043.34;;;16.62;46.42
48778;BME280;34578;0.000;0.000;2023-04-04T02:55:13;97033.28;;;16.65;45.74
48778;BME280;34578;0.000;0.000;2023-04-04T03:00:16;97041.72;;;16.64;45.61
48778;BME280;34578;0.000;0.000;2023-04-04T03:05:17;97036.59;;;16.61;46.44
48778;BME280;34578;0.000;0.000;2023-04-04T03:10:17;97040.00;;;16.63;45.91
48778;BME280;34578;0.000;0.000;2023-04-04T03:15:18;97035.78;;;16.64;45.60
48778;BME280;34578;0.000;0.000;2023-04-04T03:20:19;97040.81;;;16.61;46.40
48778;BME280;34578;0.000;0.000;2023-04-04T03:25:19;97036.56;;;16.58;45.37
48778;BME280;34578;0.000;0.000;2023-04-04T03:30:20;97039.97;;;16.60;45.68
48778;BME280;34578;0.000;0.000;2023-04-04T03:35:20;97042.56;;;16.67;45.42
48778;BME280;34578;0.000;0.000;2023-04-04T03:40:21;97032.47;;;16.69;46.59
48778;BME280;34578;0.000;0.000;2023-04-04T03:45:21;97039.22;;;16.67;46.12
48778;BME280;34578;0.000;0.000;2023-04-04T03:50:22;97034.94;;;16.63;45.52
48778;BME280;34578;0.000;0.000;2023-04-04T03:55:25;97036.59;;;16.61;46.12
48778;BME280;34578;0.000;0.000;2023-04-04T04:00:29;97034.06;;;16.61;46.01
48778;BME280;34578;0.000;0.000;2023-04-04T04:05:29;97039.97;;;16.60;45.71
48778;BME280;34578;0.000;0.000;2023-04-04T04:10:31;97045.09;;;16.66;44.61
48778;BME280;34578;0.000;0.000;2023-04-04T04:15:31;97048.56;;;16.74;44.20
48778;BME280;34578;0.000;0.000;2023-04-04T04:20:34;97051.94;;;16.73;44.18
48778;BME280;34578;0.000;0.000;2023-04-04T04:25:34;97046.03;;;16.74;45.28
48778;BME280;34578;0.000;0.000;2023-04-04T04:30:46;97048.59;;;16.77;42.76
48778;BME280;34578;0.000;0.000;2023-04-04T04:35:49;97050.38;;;16.84;42.21
48778;BME280;34578;0.000;0.000;2023-04-04T04:40:50;97060.50;;;16.87;42.46
48778;BME280;34578;0.000;0.000;2023-04-04T04:45:58;97047.03;;;16.88;42.37
48778;BME280;34578;0.000;0.000;2023-04-04T04:50:58;97058.91;;;16.92;42.84
48778;BME280;34578;0.000;0.000;2023-04-04T04:56:09;97068.16;;;16.91;42.63
48778;BME280;34578;0.000;0.000;2023-04-04T05:01:14;97060.59;;;16.93;42.30
48778;BME280;34578;0.000;0.000;2023-04-04T05:06:14;97059.72;;;16.91;41.92
48778;BME280;34578;0.000;0.000;2023-04-04T05:11:15;97063.00;;;16.81;44.20
48778;BME280;34578;0.000;0.000;2023-04-04T05:16:16;97070.56;;;16.82;42.17
48778;BME280;34578;0.000;0.000;2023-04-04T05:21:19;97069.28;;;16.48;40.65
48778;BME280;34578;0.000;0.000;2023-04-04T05:26:22;97068.56;;;16.56;42.10
48778;BME280;34578;0.000;0.000;2023-04-04T05:31:24;97070.38;;;16.66;41.54
48778;BME280;34578;0.000;0.000;2023-04-04T05:36:26;97076.34;;;16.73;41.89
48778;BME280;34578;0.000;0.000;2023-04-04T05:41:32;97077.13;;;16.67;42.72
48778;BME280;34578;0.000;0.000;2023-04-04T05:46:37;97091.53;;;16.73;42.11
48778;BME280;34578;0.000;0.000;2023-04-04T05:51:38;97098.19;;;16.66;42.99
48778;BME280;34578;0.000;0.000;2023-04-04T05:56:49;97097.94;;;16.48;40.41
48778;BME280;34578;0.000;0.000;2023-04-04T06:02:00;97094.81;;;16.67;41.48
48778;BME280;34578;0.000;0.000;2023-04-04T06:07:01;97096.44;;;16.62;40.08
48778;BME280;34578;0.000;0.000;2023-04-04T06:12:02;97098.28;;;16.72;42.27
48778;BME280;34578;0.000;0.000;2023-04-04T06:17:06;97096.56;;;16.73;42.21
48778;BME280;34578;0.000;0.000;2023-04-04T06:22:08;97097.47;;;16.76;41.73
48778;BME280;34578;0.000;0.000;2023-04-04T06:27:11;97104.19;;;16.75;41.99
48778;BME280;34578;0.000;0.000;2023-04-04T06:32:12;97100.84;;;16.75;42.57
48778;BME280;34578;0.000;0.000;2023-04-04T06:37:15;97088.97;;;16.71;42.46
48778;BME280;34578;0.000;0.000;2023-04-04T06:42:24;97098.28;;;16.73;42.99
48778;BME280;34578;0.000;0.000;2023-04-04T06:47:26;97091.53;;;16.73;42.35
48778;BME280;34578;0.000;0.000;2023-04-04T06:52:27;97092.41;;;16.76;40.80
48778;BME280;34578;0.000;0.000;2023-04-04T06:57:28;97084.81;;;16.74;43.08
48778;BME280;34578;0.000;0.000;2023-04-04T07:02:29;97073.00;;;16.73;42.33
48778;BME280;34578;0.000;0.000;2023-04-04T07:07:29;97070.50;;;16.75;42.14
48778;BME280;34578;0.000;0.000;2023-04-04T07:12:29;97061.16;;;16.71;42.92
48778;BME280;34578;0.000;0.000;2023-04-04T07:17:30;97064.63;;;16.79;42.48
48778;BME280;34578;0.000;0.000;2023-04-04T07:22:31;97068.00;;;16.78;44.22
48778;BME280;34578;0.000;0.000;2023-04-04T07:27:31;97057.91;;;16.79;40.68
48778;BME280;34578;0.000;0.000;2023-04-04T07:32:32;97061.25;;;16.77;42.56
48778;BME280;34578;0.000;0.000;2023-04-04T07:37:35;97057.00;;;16.73;41.70
48778;BME280;34578;0.000;0.000;2023-04-04T07:42:44;97065.44;;;16.75;41.35
48778;BME280;34578;0.000;0.000;2023-04-04T07:47:45;97065.44;;;16.75;41.57
48778;BME280;34578;0.000;0.000;2023-04-04T07:52:49;97062.88;;;16.72;42.24
48778;BME280;34578;0.000;0.000;2023-04-04T07:57:54;97066.28;;;16.74;42.59
48778;BME280;34578;0.000;0.000;2023-04-04T08:02:55;97063.75;;;16.74;42.38
48778;BME280;34578;0.000;0.000;2023-04-04T08:07:58;97062.91;;;16.75;41.63
48778;BME280;34578;0.000;0.000;2023-04-04T08:12:58;97057.00;;;16.73;41.52
48778;BME280;34578;0.000;0.000;2023-04-04T08:17:58;97062.91;;;16.75;43.00
48778;BME280;34578;0.000;0.000;2023-04-04T08:22:59;97062.81;;;16.69;43.81
48778;BME280;34578;0.000;0.000;2023-04-04T08:28:01;97056.97;;;16.72;42.99
48778;BME280;34578;0.000;0.000;2023-04-04T08:33:03;97059.53;;;16.76;42.53
48778;BME280;34578;0.000;0.000;2023-04-04T08:38:03;97059.56;;;16.77;41.24
48778;BME280;34578;0.000;0.000;2023-04-04T08:43:07;97064.53;;;16.72;43.57
48778;BME280;34578;0.000;0.000;2023-04-04T08:48:10;97066.16;;;16.67;42.46
48778;BME280;34578;0.000;0.000;2023-04-04T08:53:12;97063.69;;;16.71;42.91
48778;BME280;34578;0.000;0.000;2023-04-04T08:58:13;97060.34;;;16.72;43.30
48778;BME280;34578;0.000;0.000;2023-04-04T09:03:23;97068.78;;;16.74;43.16
48778;BME280;34578;0.000;0.000;2023-04-04T09:08:25;97058.72;;;16.77;41.51
48778;BME280;34578;0.000;0.000;2023-04-04T09:13:25;97061.22;;;16.75;41.65
48778;BME280;34578;0.000;0.000;2023-04-04T09:18:26;97052.75;;;16.73;43.17
48778;BME280;34578;0.000;0.000;2023-04-04T09:23:26;97049.41;;;16.74;43.54
48778;BME280;34578;0.000;0.000;2023-04-04T09:28:27;97056.19;;;16.77;41.90
48778;BME280;34578;0.000;0.000;2023-04-04T09:33:27;97051.16;;;16.78;42.36
48778;BME280;34578;0.000;0.000;2023-04-04T09:38:28;97050.25;;;16.75;42.53
48778;BME280;34578;0.000;0.000;2023-04-04T09:43:30;97058.72;;;16.77;43.94
48778;BME280;34578;0.000;0.000;2023-04-04T09:48:32;97062.91;;;16.75;45.25
48778;BME280;34578;0.000;0.000;2023-04-04T09:53:34;97057.88;;;16.77;43.09
48778;BME280;34578;0.000;0.000;2023-04-04T09:58:39;97070.50;;;16.78;42.28
48778;BME280;34578;0.000;0.000;2023-04-04T10:03:39;97063.78;;;16.80;42.28
48778;BME280;34578;0.000;0.000;2023-04-04T10:08:40;97062.09;;;16.79;43.26
48778;BME280;34578;0.000;0.000;2023-04-04T10:13:41;97062.94;;;16.77;44.31
48778;BME280;34578;0.000;0.000;2023-04-04T10:18:43;97059.56;;;16.77;44.53
48778;BME280;34578;0.000;0.000;2023-04-04T10:23:45;97058.75;;;16.78;42.69
48778;BME280;34578;0.000;0.000;2023-04-04T10:28:46;97056.25;;;16.83;43.10
48778;BME280;34578;0.000;0.000;2023-04-04T10:39:14;97052.06;;;16.85;44.80
48778;BME280;34578;0.000;0.000;2023-04-04T10:49:22;97041.94;;;16.85;46.43
48778;BME280;34578;0.000;0.000;2023-04-04T10:54:26;97047.84;;;16.84;42.67
48778;BME280;34578;0.000;0.000;2023-04-04T10:59:28;97038.56;;;16.84;48.03
48778;BME280;34578;0.000;0.000;2023-04-04T11:04:33;97035.22;;;16.87;47.14
48778;BME280;34578;0.000;0.000;2023-04-04T11:09:52;97020.91;;;16.87;43.43
48778;BME280;34578;0.000;0.000;2023-04-04T11:20:03;97010.75;;;16.84;44.26
48778;BME280;34578;0.000;0.000;2023-04-04T11:30:24;97013.31;;;16.87;43.27
48778;BME280;34578;0.000;0.000;2023-04-04T11:35:25;96998.13;;;16.86;42.26
48778;BME280;34578;0.000;0.000;2023-04-04T11:40:40;96986.31;;;16.85;43.02
48778;BME280;34578;0.000;0.000;2023-04-04T11:45:45;97000.69;;;16.87;43.63
48778;BME280;34578;0.000;0.000;2023-04-04T11:50:47;96993.91;;;16.85;43.68
48778;BME280;34578;0.000;0.000;2023-04-04T11:55:49;96998.13;;;16.86;44.18
48778;BME280;34578;0.000;0.000;2023-04-04T12:00:50;96994.75;;;16.87;42.09
48778;BME280;34578;0.000;0.000;2023-04-04T12:05:50;96993.13;;;16.89;43.32
48778;BME280;34578;0.000;0.000;2023-04-04T12:10:52;96999.03;;;16.91;44.67
48778;BME280;34578;0.000;0.000;2023-04-04T12:15:54;96984.63;;;16.84;47.41
48778;BME280;34578;0.000;0.000;2023-04-04T12:20:55;96994.75;;;16.84;44.56
48778;BME280;34578;0.000;0.000;2023-04-04T12:25:56;96990.47;;;16.80;42.83
48778;BME280;34578;0.000;0.000;2023-04-04T12:30:59;96985.53;;;16.89;42.33
48778;BME280;34578;0.000;0.000;2023-04-04T12:36:04;96988.09;;;16.92;38.60
48778;BME280;34578;0.000;0.000;2023-04-04T12:41:08;96986.41;;;16.91;40.48
48778;BME280;34578;0.000;0.000;2023-04-04T12:46:16;96988.88;;;16.88;40.74
48778;BME280;34578;0.000;0.000;2023-04-04T12:51:16;96985.50;;;16.87;41.54
48778;BME280;34578;0.000;0.000;2023-04-04T12:56:18;96975.41;;;16.87;42.08
48778;BME280;34578;0.000;0.000;2023-04-04T13:01:19;96976.22;;;16.88;41.88
48778;BME280;34578;0.000;0.000;2023-04-04T13:06:20;96975.38;;;16.86;42.79
48778;BME280;34578;0.000;0.000;2023-04-04T13:11:21;96971.16;;;16.85;42.75
48778;BME280;34578;0.000;0.000;2023-04-04T13:16:31;96973.69;;;16.86;42.35
48778;BME280;34578;0.000;0.000;2023-04-04T13:21:32;96958.44;;;16.79;42.86
48778;BME280;34578;0.000;0.000;2023-04-04T13:26:32;96961.88;;;16.84;44.30
48778;BME280;34578;0.000;0.000;2023-04-04T13:31:32;96951.75;;;16.81;40.12
48778;BME280;34578;0.000;0.000;2023-04-04T13:36:33;96953.47;;;16.88;41.45
48778;BME280;34578;0.000;0.000;2023-04-04T13:41:33;96941.63;;;16.84;40.89
48778;BME280;34578;0.000;0.000;2023-04-04T13:46:34;96934.94;;;16.87;41.69
48778;BME280;34578;0.000;0.000;2023-04-04T13:51:34;96944.88;;;16.73;39.54
48778;BME280;34578;0.000;0.000;2023-04-04T13:56:37;96946.59;;;16.75;39.30
48778;BME280;34578;0.000;0.000;2023-04-04T14:01:38;96939.00;;;16.72;38.39
48778;BME280;34578;0.000;0.000;2023-04-04T14:06:39;96940.72;;;16.79;39.97
48778;BME280;34578;0.000;0.000;2023-04-04T14:11:39;96933.19;;;16.82;40.50
48778;BME280;34578;0.000;0.000;2023-04-04T14:16:40;96935.72;;;16.82;41.05
48778;BME280;34578;0.000;0.000;2023-04-04T14:21:41;96935.72;;;16.82;41.83
48778;BME280;34578;0.000;0.000;2023-04-04T14:26:41;96920.56;;;16.82;41.35
48778;BME280;34578;0.000;0.000;2023-04-04T14:31:41;96921.41;;;16.81;41.76
48778;BME280;34578;0.000;0.000;2023-04-04T14:36:42;96924.72;;;16.80;42.69
48778;BME280;34578;0.000;0.000;2023-04-04T14:41:42;96924.78;;;16.84;42.75
48778;BME280;34578;0.000;0.000;2023-04-04T14:46:43;96926.44;;;16.82;43.60
48778;BME280;34578;0.000;0.000;2023-04-04T14:51:43;96920.56;;;16.82;42.13
48778;BME280;34578;0.000;0.000;2023-04-04T14:56:44;96924.75;;;16.81;42.26
48778;BME280;34578;0.000;0.000;2023-04-04T15:01:44;96923.91;;;16.81;42.41
48778;BME280;34578;0.000;0.000;2023-04-04T15:06:45;96922.19;;;16.80;42.37
48778;BME280;34578;0.000;0.000;2023-04-04T15:11:46;96922.19;;;16.80;42.82
48778;BME280;34578;0.000;0.000;2023-04-04T15:16:46;96913.72;;;16.72;41.99
48778;BME280;34578;0.000;0.000;2023-04-04T15:21:47;96923.84;;;16.72;39.92
48778;BME280;34578;0.000;0.000;2023-04-04T15:26:47;96930.59;;;16.76;41.63
48778;BME280;34578;0.000;0.000;2023-04-04T15:31:48;96927.25;;;16.77;42.28
48778;BME280;34578;0.000;0.000;2023-04-04T15:36:48;96921.34;;;16.77;42.17
48778;BME280;34578;0.000;0.000;2023-04-04T15:41:51;96927.25;;;16.78;41.52
48778;BME280;34578;0.000;0.000;2023-04-04T15:46:51;96925.56;;;16.77;42.28
48778;BME280;34578;0.000;0.000;2023-04-04T15:51:51;96935.69;;;16.80;43.51
48778;BME280;34578;0.000;0.000;2023-04-04T15:56:52;96922.19;;;16.77;43.93
48778;BME280;34578;0.000;0.000;2023-04-04T16:01:52;96923.84;;;16.75;44.10
48778;BME280;34578;0.000;0.000;2023-04-04T16:06:52;96937.16;;;16.56;41.24
48778;BME280;34578;0.000;0.000;2023-04-04T16:11:53;96934.78;;;16.75;40.70
48778;BME280;34578;0.000;0.000;2023-04-04T16:16:53;96936.53;;;16.77;42.12
48778;BME280;34578;0.000;0.000;2023-04-04T16:21:54;96931.47;;;16.78;43.46
48778;BME280;34578;0.000;0.000;2023-04-04T16:26:54;96925.53;;;16.76;43.83
48778;BME280;34578;0.000;0.000;2023-04-04T16:31:55;96932.28;;;16.74;43.64
48778;BME280;34578;0.000;0.000;2023-04-04T16:36:55;96918.78;;;16.72;45.61
48778;BME280;34578;0.000;0.000;2023-04-04T16:41:56;96924.69;;;16.75;44.88
48778;BME280;34578;0.000;0.000;2023-04-04T16:46:56;96922.16;;;16.74;45.13
48778;BME280;34578;0.000;0.000;2023-04-04T16:51:57;96915.41;;;16.73;45.83
48778;BME280;34578;0.000;0.000;2023-04-04T16:56:57;96921.31;;;16.72;45.73
48778;BME280;34578;0.000;0.000;2023-04-04T17:01:58;96915.41;;;16.73;46.24
48778;BME280;34578;0.000;0.000;2023-04-04T17:06:58;96917.97;;;16.77;46.91
48778;BME280;34578;0.000;0.000;2023-04-04T17:11:59;96920.50;;;16.76;47.22
48778;BME280;34578;0.000;0.000;2023-04-04T17:17:00;96922.22;;;16.78;45.89
48778;BME280;34578;0.000;0.000;2023-04-04T17:22:01;96925.53;;;16.76;45.67
48778;BME280;34578;0.000;0.000;2023-04-04T17:27:01;96923.00;;;16.74;46.19
48778;BME280;34578;0.000;0.000;2023-04-04T17:32:02;96926.38;;;16.72;46.49
48778;BME280;34578;0.000;0.000;2023-04-04T17:37:03;96929.69;;;16.71;46.57
48778;BME280;34578;0.000;0.000;2023-04-04T17:42:03;96926.38;;;16.75;45.11
48778;BME280;34578;0.000;0.000;2023-04-04T17:47:04;96929.75;;;16.75;45.09
48778;BME280;34578;0.000;0.000;2023-04-04T17:52:05;96943.22;;;16.73;45.93
48778;BME280;34578;0.000;0.000;2023-04-04T17:57:06;96940.66;;;16.72;46.37
48778;BME280;34578;0.000;0.000;2023-04-04T18:02:06;96940.66;;;16.70;46.79
48778;BME280;34578;0.000;0.000;2023-04-04T18:07:07;96943.22;;;16.73;44.77
48778;BME280;34578;0.000;0.000;2023-04-04T18:12:08;96947.38;;;16.71;44.92
48778;BME280;34578;0.000;0.000;2023-04-04T18:17:08;96942.34;;;16.70;43.55
48778;BME280;34578;0.000;0.000;2023-04-04T18:22:09;96961.75;;;16.72;42.64
48778;BME280;34578;0.000;0.000;2023-04-04T18:27:10;96976.09;;;16.76;46.65
48778;BME280;34578;0.000;0.000;2023-04-04T18:32:10;96971.88;;;16.75;45.03
48778;BME280;34578;0.000;0.000;2023-04-04T18:37:11;96967.56;;;16.65;46.09
48778;BME280;34578;0.000;0.000;2023-04-04T18:42:11;96974.31;;;16.66;45.59
48778;BME280;34578;0.000;0.000;2023-04-04T18:47:12;96976.81;;;16.65;43.49
48778;BME280;34578;0.000;0.000;2023-04-04T18:52:12;96982.75;;;16.65;41.65
48778;BME280;34578;0.000;0.000;2023-04-04T18:57:13;96985.25;;;16.64;41.76
48778;BME280;34578;0.000;0.000;2023-04-04T19:02:13;96990.28;;;16.64;41.27
48778;BME280;34578;0.000;0.000;2023-04-04T19:07:16;97003.78;;;16.66;41.34
48778;BME280;34578;0.000;0.000;2023-04-04T19:12:21;97009.66;;;16.63;41.29
48778;BME280;34578;0.000;0.000;2023-04-04T19:17:22;97013.03;;;16.64;41.44
48778;BME280;34578;0.000;0.000;2023-04-04T19:22:22;97014.72;;;16.63;41.07
48778;BME280;34578;0.000;0.000;2023-04-04T19:27:22;97016.38;;;16.61;40.50
48778;BME280;34578;0.000;0.000;2023-04-04T19:32:25;97021.44;;;16.61;40.40
48778;BME280;34578;0.000;0.000;2023-04-04T19:37:26;97029.13;;;16.69;45.97
48778;BME280;34578;0.000;0.000;2023-04-04T19:42:26;97029.19;;;16.73;47.73
48778;BME280;34578;0.000;0.000;2023-04-04T19:47:28;97034.16;;;16.67;44.45
48778;BME280;34578;0.000;0.000;2023-04-04T19:52:29;97026.53;;;16.64;41.37
48778;BME280;34578;0.000;0.000;2023-04-04T19:57:29;97024.03;;;16.64;41.09
48778;BME280;34578;0.000;0.000;2023-04-04T20:07:32;97028.19;;;16.61;45.52
48778;BME280;34578;0.000;0.000;2023-04-04T20:12:32;97035.78;;;16.61;41.97
48778;BME280;34578;0.000;0.000;2023-04-04T20:17:32;97034.09;;;16.63;43.60
48778;BME280;34578;0.000;0.000;2023-04-04T20:22:33;97029.88;;;16.63;43.69
48778;BME280;34578;0.000;0.000;2023-04-04T20:27:33;97034.09;;;16.63;44.18
48778;BME280;34578;0.000;0.000;2023-04-04T20:32:34;97033.25;;;16.62;43.61
48778;BME280;34578;0.000;0.000;2023-04-04T20:37:34;97034.06;;;16.61;43.95
48778;BME280;34578;0.000;0.000;2023-04-04T20:42:37;97041.66;;;16.61;44.00
48778;BME280;34578;0.000;0.000;2023-04-04T20:47:55;97045.88;;;16.61;44.42
48778;BME280;34578;0.000;0.000;2023-04-04T20:53:01;97047.59;;;16.65;46.32
48778;BME280;34578;0.000;0.000;2023-04-04T20:58:06;97033.22;;;16.59;46.34
48778;BME280;34578;0.000;0.000;2023-04-04T21:03:29;97050.06;;;16.60;46.01
48778;BME280;34578;0.000;0.000;2023-04-04T21:08:40;97050.91;;;16.59;45.02
48778;BME280;34578;0.000;0.000;2023-04-04T21:13:42;97045.00;;;16.59;44.95
48778;BME280;34578;0.000;0.000;2023-04-04T21:18:43;97050.03;;;16.57;44.36
48778;BME280;34578;0.000;0.000;2023-04-04T21:23:51;97040.78;;;16.56;44.60
48778;BME280;34578;0.000;0.000;2023-04-04T21:28:52;97049.19;;;16.57;44.75
48778;BME280;34578;0.000;0.000;2023-04-04T21:33:54;97045.78;;;16.55;44.54
48778;BME280;34578;0.000;0.000;2023-04-04T21:39:00;97052.50;;;16.54;44.09
48778;BME280;34578;0.000;0.000;2023-04-04T21:44:03;97053.34;;;16.53;44.40
48778;BME280;34578;0.000;0.000;2023-04-04T21:49:05;97055.03;;;16.54;44.21
48778;BME280;34578;0.000;0.000;2023-04-04T21:54:06;97053.34;;;16.53;44.02
48778;BME280;34578;0.000;0.000;2023-04-04T21:59:07;97055.88;;;16.53;44.08
48778;BME280;34578;0.000;0.000;2023-04-04T22:04:08;97050.03;;;16.57;46.05
48778;BME280;34578;0.000;0.000;2023-04-04T22:09:09;97044.19;;;16.60;46.20
48778;BME280;34578;0.000;0.000;2023-04-04T22:14:11;97047.56;;;16.62;45.28
48778;BME280;34578;0.000;0.000;2023-04-04T22:19:16;97048.28;;;16.53;45.36
48778;BME280;34578;0.000;0.000;2023-04-04T22:24:17;97049.13;;;16.52;44.97
48778;BME280;34578;0.000;0.000;2023-04-04T22:29:17;97058.41;;;16.52;44.72
48778;BME280;34578;0.000;0.000;2023-04-04T22:34:17;97046.56;;;16.49;44.69
48778;BME280;34578;0.000;0.000;2023-04-04T22:39:18;97047.41;;;16.50;44.99
48778;BME280;34578;0.000;0.000;2023-04-04T22:44:22;97041.50;;;16.51;44.19
48778;BME280;34578;0.000;0.000;2023-04-04T22:49:22;97040.66;;;16.49;44.43
48778;BME280;34578;0.000;0.000;2023-04-04T22:54:22;97033.88;;;16.46;44.31
48778;BME280;34578;0.000;0.000;2023-04-04T22:59:23;97039.00;;;16.52;44.33
48778;BME280;34578;0.000;0.000;2023-04-04T23:04:23;97020.47;;;16.50;43.50
48778;BME280;34578;0.000;0.000;2023-04-04T23:09:24;97024.66;;;16.48;43.00
48778;BME280;34578;0.000;0.000;2023-04-04T23:14:24;97022.13;;;16.50;44.51
48778;BME280;34578;0.000;0.000;2023-04-04T23:19:30;97025.53;;;16.52;45.60
48778;BME280;34578;0.000;0.000;2023-04-04T23:24:30;97029.81;;;16.57;46.19
48778;BME280;34578;0.000;0.000;2023-04-04T23:29:31;97029.03;;;16.60;44.98
48778;BME280;34578;0.000;0.000;2023-04-04T23:34:32;97025.53;;;16.53;44.69
48778;BME280;34578;0.000;0.000;2023-04-04T23:39:32;97029.72;;;16.48;45.47
48778;BME280;34578;0.000;0.000;2023-04-04T23:44:33;97022.97;;;16.47;45.49
48778;BME280;34578;0.000;0.000;2023-04-04T23:49:35;97011.19;;;16.49;45.42
48778;BME280;34578;0.000;0.000;2023-04-04T23:54:36;97017.06;;;16.50;44.87
48778;BME280;34578;0.000;0.000;2023-04-04T23:59:37;97012.84;;;16.47;44.80
